createdAt,value
2022-08-23T00:24:23.079Z,19.50
2022-08-23T00:51:46.896Z,19.30
2022-08-23T02:06:04.378Z,19.40
2022-08-23T02:38:13.969Z,19.50
2022-08-23T02:41:22.187Z,19.40
2022-08-23T02:44:20.036Z,19.50
2022-08-23T02:46:53.682Z,19.40
2022-08-23T02:50:02.737Z,19.40
2022-08-23T02:52:39.999Z,19.40
2022-08-23T02:55:16.733Z,19.40
2022-08-23T02:57:48.428Z,19.40
2022-08-23T03:00:21.408Z,19.40
2022-08-23T03:03:03.284Z,19.30
2022-08-23T03:05:39.155Z,19.30
2022-08-23T03:08:10.995Z,19.30
2022-08-23T03:11:32.591Z,19.30
2022-08-23T03:14:33.137Z,19.30
2022-08-23T03:21:14.264Z,19.30
2022-08-23T03:23:49.152Z,19.20
2022-08-23T03:26:23.233Z,19.20
2022-08-23T03:28:56.876Z,19.30
2022-08-23T03:31:31.220Z,19.20
2022-08-23T03:34:12.282Z,19.20
2022-08-23T03:36:46.287Z,19.20
2022-08-23T03:39:22.129Z,19.30
2022-08-23T03:41:55.107Z,19.20
2022-08-23T03:44:29.044Z,19.20
2022-08-23T03:47:06.210Z,19.20
2022-08-23T03:49:38.339Z,19.20
2022-08-23T03:52:13.995Z,19.20
2022-08-23T03:55:04.152Z,19.20
2022-08-23T03:57:36.998Z,19.20
2022-08-23T04:00:10.326Z,19.20
2022-08-23T04:02:48.108Z,19.20
2022-08-23T04:05:19.520Z,19.20
2022-08-23T04:08:31.899Z,19.20
2022-08-23T04:11:53.550Z,19.20
2022-08-23T04:14:38.639Z,19.20
2022-08-23T04:17:11.811Z,19.20
2022-08-23T04:19:42.402Z,19.10
2022-08-23T04:25:38.175Z,19.10
2022-08-23T04:28:10.108Z,19.10
2022-08-23T04:30:40.149Z,19.20
2022-08-23T04:33:17.721Z,19.20
2022-08-23T04:35:51.511Z,19.20
2022-08-23T04:38:25.390Z,19.20
2022-08-23T04:41:18.452Z,19.20
2022-08-23T04:43:52.179Z,19.10
2022-08-23T04:46:25.119Z,19.20
2022-08-23T04:49:03.267Z,19.20
2022-08-23T04:51:37.011Z,19.20
2022-08-23T04:54:09.264Z,19.20
2022-08-23T04:57:04.699Z,19.20
2022-08-23T04:59:35.660Z,19.20
2022-08-23T05:02:08.282Z,19.20
2022-08-23T05:04:41.904Z,19.20
2022-08-23T05:07:15.488Z,19.20
2022-08-23T05:09:47.393Z,19.20
2022-08-23T05:12:22.951Z,19.20
2022-08-23T05:14:56.559Z,19.20
2022-08-23T05:18:10.972Z,19.20
2022-08-23T05:20:48.768Z,19.20
2022-08-23T05:23:19.641Z,19.30
2022-08-23T05:26:07.256Z,19.30
2022-08-23T05:28:45.234Z,19.30
2022-08-23T05:31:22.456Z,19.40
2022-08-23T05:34:01.004Z,19.40
2022-08-23T05:37:04.832Z,19.40
2022-08-23T05:39:40.438Z,19.40
2022-08-23T05:42:15.952Z,19.50
2022-08-23T05:44:49.886Z,19.50
2022-08-23T05:47:24.920Z,19.50
2022-08-23T05:50:17.694Z,19.60
2022-08-23T05:52:54.874Z,19.60
2022-08-23T05:55:34.974Z,19.70
2022-08-23T05:58:40.998Z,19.60
2022-08-23T06:01:14.820Z,19.70
2022-08-23T06:03:50.414Z,19.70
2022-08-23T06:06:23.876Z,19.80
2022-08-23T06:09:13.122Z,19.80
2022-08-23T06:11:55.305Z,19.90
2022-08-23T06:14:29.096Z,19.90
2022-08-23T06:17:00.562Z,19.90
2022-08-23T06:19:32.494Z,20.00
2022-08-23T06:22:20.126Z,20.00
2022-08-23T06:24:51.562Z,20.00
2022-08-23T06:27:20.356Z,20.10
2022-08-23T06:29:50.590Z,20.10
2022-08-23T06:32:35.173Z,20.10
2022-08-23T06:35:37.721Z,20.20
2022-08-23T06:38:16.697Z,20.30
2022-08-23T06:41:45.722Z,20.30
2022-08-23T06:44:32.878Z,20.40
2022-08-23T06:47:44.676Z,20.40
2022-08-23T06:55:33.153Z,20.60
2022-08-23T12:17:34.961Z,29.30
2022-08-23T12:18:25.265Z,29.20
2022-08-23T15:42:20.236Z,25.50
2022-08-23T17:45:17.696Z,23.70
